createdAt,value
2019-04-26T00:00:10.888Z,37.60
2019-04-26T00:02:41.478Z,28.50
2019-04-26T00:05:10.853Z,27.48
2019-04-26T00:07:40.845Z,25.02
2019-04-26T00:10:10.553Z,26.07
2019-04-26T00:12:40.244Z,33.20
2019-04-26T00:15:11.022Z,26.87
2019-04-26T00:17:41.661Z,30.27
2019-04-26T00:20:12.036Z,27.35
2019-04-26T00:22:43.407Z,33.18
2019-04-26T00:25:13.041Z,31.93
2019-04-26T00:27:42.468Z,30.97
2019-04-26T00:30:13.029Z,29.52
2019-04-26T00:32:44.864Z,28.92
2019-04-26T00:35:14.429Z,30.60
2019-04-26T00:37:44.109Z,30.32
2019-04-26T00:40:14.325Z,26.17
2019-04-26T00:42:45.714Z,30.30
2019-04-26T00:45:15.307Z,24.65
2019-04-26T00:47:44.939Z,23.40
2019-04-26T00:50:15.265Z,30.57
2019-04-26T00:52:45.563Z,24.87
2019-04-26T00:55:15.590Z,24.23
2019-04-26T00:57:46.442Z,22.22
2019-04-26T01:00:16.911Z,26.45
2019-04-26T01:02:50.703Z,24.67
2019-04-26T01:05:20.882Z,21.40
2019-04-26T01:07:51.969Z,23.62
2019-04-26T01:10:21.672Z,20.15
2019-04-26T01:12:51.630Z,19.92
2019-04-26T01:15:22.052Z,27.17
2019-04-26T01:17:52.218Z,24.50
2019-04-26T01:20:22.572Z,20.17
2019-04-26T01:22:51.909Z,25.57
2019-04-26T01:25:21.389Z,20.05
2019-04-26T01:27:51.441Z,24.00
2019-04-26T01:32:59.017Z,18.40
2019-04-26T01:35:30.027Z,17.42
2019-04-26T01:38:02.305Z,19.77
2019-04-26T01:40:34.572Z,20.48
2019-04-26T01:43:06.821Z,19.32
2019-04-26T01:45:41.158Z,21.15
2019-04-26T01:48:16.138Z,22.22
2019-04-26T01:50:48.400Z,17.87
2019-04-26T01:53:18.999Z,26.68
2019-04-26T01:55:50.028Z,25.35
2019-04-26T01:58:21.913Z,19.17
2019-04-26T02:00:54.797Z,23.62
2019-04-26T02:03:29.825Z,19.45
2019-04-26T02:06:00.809Z,19.23
2019-04-26T02:08:32.485Z,21.37
2019-04-26T02:11:03.771Z,17.73
2019-04-26T02:13:34.682Z,19.48
2019-04-26T02:16:05.898Z,21.75
2019-04-26T02:18:36.918Z,20.37
2019-04-26T02:21:10.176Z,22.22
2019-04-26T02:23:42.405Z,22.45
2019-04-26T02:26:15.730Z,20.25
2019-04-26T02:28:46.742Z,17.82
2019-04-26T02:31:17.554Z,21.15
2019-04-26T02:33:48.849Z,25.27
2019-04-26T02:36:20.204Z,21.87
2019-04-26T02:38:54.036Z,28.57
2019-04-26T02:41:27.433Z,22.85
2019-04-26T02:44:00.183Z,22.80
2019-04-26T02:46:35.986Z,24.90
2019-04-26T02:49:09.575Z,20.30
2019-04-26T02:51:45.604Z,20.90
2019-04-26T02:54:18.680Z,24.18
2019-04-26T02:59:22.896Z,27.60
2019-04-26T03:01:56.031Z,20.62
2019-04-26T03:07:03.530Z,21.85
2019-04-26T03:09:37.021Z,26.25
2019-04-26T03:12:10.475Z,27.82
2019-04-26T03:14:45.765Z,25.32
2019-04-26T03:17:19.822Z,27.17
2019-04-26T03:19:53.250Z,25.35
2019-04-26T03:22:24.963Z,24.18
2019-04-26T03:24:58.400Z,24.27
2019-04-26T03:27:37.842Z,26.02
2019-04-26T03:30:22.404Z,24.60
2019-04-26T03:32:50.711Z,24.07
2019-04-26T03:35:22.143Z,31.90
2019-04-26T03:37:56.655Z,33.02
2019-04-26T03:40:32.560Z,27.82
2019-04-26T03:43:06.029Z,33.48
2019-04-26T03:45:40.878Z,25.92
2019-04-26T03:48:13.804Z,27.65
2019-04-26T03:50:47.140Z,26.87
2019-04-26T03:53:19.452Z,27.15
2019-04-26T03:55:53.552Z,27.52
2019-04-26T03:58:28.056Z,51.90
2019-04-26T04:01:10.241Z,30.35
2019-04-26T04:03:47.488Z,26.95
2019-04-26T04:06:22.023Z,30.32
2019-04-26T04:08:55.220Z,25.88
2019-04-26T04:11:28.484Z,24.40
2019-04-26T04:14:01.945Z,23.83
2019-04-26T04:16:32.990Z,23.92
2019-04-26T04:19:06.165Z,24.57
2019-04-26T04:21:42.542Z,26.15
2019-04-26T04:24:15.580Z,25.10
2019-04-26T04:26:48.898Z,22.65
2019-04-26T04:29:20.741Z,24.15
2019-04-26T04:31:54.338Z,23.75
2019-04-26T04:34:26.028Z,23.75
2019-04-26T04:36:59.642Z,22.90
2019-04-26T04:39:32.779Z,28.23
2019-04-26T04:42:07.688Z,23.32
2019-04-26T04:44:42.354Z,21.60
2019-04-26T04:47:24.301Z,24.77
2019-04-26T04:49:52.710Z,22.42
2019-04-26T04:52:25.258Z,24.20
2019-04-26T04:55:07.060Z,22.25
2019-04-26T04:57:31.811Z,22.00
2019-04-26T05:00:06.648Z,21.30
2019-04-26T05:02:40.045Z,26.90
2019-04-26T05:05:14.831Z,20.17
2019-04-26T05:07:47.299Z,20.50
2019-04-26T05:10:20.858Z,19.95
2019-04-26T05:12:54.339Z,20.27
2019-04-26T05:15:29.070Z,16.73
2019-04-26T05:18:02.297Z,19.37
2019-04-26T05:20:34.114Z,20.68
2019-04-26T05:23:07.359Z,20.50
2019-04-26T05:25:42.960Z,20.17
2019-04-26T05:28:21.310Z,21.17
2019-04-26T05:30:54.355Z,19.92
2019-04-26T05:33:28.754Z,20.52
2019-04-26T05:36:03.161Z,19.92
2019-04-26T05:38:36.798Z,30.95
2019-04-26T05:41:08.494Z,19.20
2019-04-26T05:43:42.986Z,20.88
2019-04-26T05:46:18.436Z,20.62
2019-04-26T05:48:53.615Z,21.40
2019-04-26T05:51:31.132Z,18.73
2019-04-26T05:54:05.582Z,19.77
2019-04-26T05:56:38.971Z,18.45
2019-04-26T05:59:12.178Z,19.87
2019-04-26T06:01:46.614Z,19.77
2019-04-26T06:04:21.042Z,18.35
2019-04-26T06:06:55.900Z,21.40
2019-04-26T06:09:30.357Z,23.50
2019-04-26T06:12:04.002Z,19.87
2019-04-26T06:14:37.008Z,22.32
2019-04-26T06:17:11.837Z,18.27
2019-04-26T06:19:44.780Z,16.85
2019-04-26T06:22:17.965Z,23.80
2019-04-26T06:24:52.677Z,21.62
2019-04-26T06:27:27.528Z,20.48
2019-04-26T06:29:58.678Z,23.10
2019-04-26T06:32:31.997Z,18.73
2019-04-26T06:35:05.534Z,22.80
2019-04-26T06:37:40.150Z,19.23
2019-04-26T06:40:13.731Z,18.45
2019-04-26T06:42:46.814Z,22.48
2019-04-26T06:45:21.832Z,22.52
2019-04-26T06:47:58.836Z,20.65
2019-04-26T06:50:33.945Z,22.80
2019-04-26T06:53:09.007Z,18.00
2019-04-26T06:55:43.639Z,17.48
2019-04-26T06:58:17.239Z,20.90
2019-04-26T07:00:51.776Z,18.42
2019-04-26T07:03:25.410Z,17.90
2019-04-26T07:06:00.279Z,17.32
2019-04-26T07:08:34.084Z,17.73
2019-04-26T07:11:09.601Z,19.75
2019-04-26T07:13:42.585Z,18.37
2019-04-26T07:16:22.980Z,18.67
2019-04-26T07:18:52.490Z,18.50
2019-04-26T07:21:27.907Z,18.50
2019-04-26T07:24:03.833Z,21.37
2019-04-26T07:26:36.936Z,18.87
2019-04-26T07:29:11.278Z,21.33
2019-04-26T07:31:44.943Z,19.60
2019-04-26T07:34:20.365Z,20.10
2019-04-26T07:36:52.230Z,19.45
2019-04-26T07:39:26.762Z,18.40
2019-04-26T07:42:01.552Z,18.27
2019-04-26T07:44:35.610Z,23.65
2019-04-26T07:47:08.910Z,18.50
2019-04-26T07:49:45.147Z,19.45
2019-04-26T07:52:18.442Z,18.75
2019-04-26T07:54:50.354Z,20.48
2019-04-26T07:57:23.910Z,17.43
2019-04-26T07:59:57.499Z,17.32
2019-04-26T08:02:32.228Z,16.95
2019-04-26T08:05:07.479Z,17.20
2019-04-26T08:07:40.817Z,16.40
2019-04-26T08:10:14.664Z,18.05
2019-04-26T08:12:47.948Z,21.73
2019-04-26T08:15:24.874Z,18.60
2019-04-26T08:17:58.126Z,19.77
2019-04-26T08:20:33.135Z,19.30
2019-04-26T08:23:09.100Z,16.77
2019-04-26T08:25:40.000Z,17.92
2019-04-26T08:28:12.355Z,18.23
2019-04-26T08:30:46.259Z,19.05
2019-04-26T08:33:19.854Z,19.60
2019-04-26T08:35:53.374Z,18.75
2019-04-26T08:38:26.185Z,26.23
2019-04-26T08:41:00.530Z,20.45
2019-04-26T08:43:32.764Z,19.40
2019-04-26T08:46:11.291Z,21.68
2019-04-26T08:48:42.647Z,21.75
2019-04-26T08:51:20.634Z,18.77
2019-04-26T08:53:51.733Z,19.23
2019-04-26T08:56:24.968Z,19.37
2019-04-26T08:58:58.505Z,18.77
2019-04-26T09:01:33.022Z,19.05
2019-04-26T09:04:08.236Z,26.48
2019-04-26T09:06:42.433Z,18.10
2019-04-26T09:09:18.226Z,21.12
2019-04-26T09:11:59.159Z,18.40
2019-04-26T09:14:24.260Z,20.60
2019-04-26T09:16:55.286Z,18.60
2019-04-26T09:19:29.835Z,19.48
2019-04-26T09:22:12.226Z,19.87
2019-04-26T09:24:33.863Z,21.80
2019-04-26T09:27:07.181Z,20.90
2019-04-26T09:29:39.413Z,23.67
2019-04-26T09:32:12.489Z,21.83
2019-04-26T09:34:44.646Z,21.55
2019-04-26T09:37:15.638Z,27.37
2019-04-26T09:39:47.458Z,20.57
2019-04-26T09:42:19.660Z,23.40
2019-04-26T09:44:51.598Z,23.23
2019-04-26T09:47:22.542Z,21.90
2019-04-26T09:49:55.247Z,24.82
2019-04-26T09:52:27.552Z,25.02
2019-04-26T09:54:59.403Z,23.10
2019-04-26T09:57:30.784Z,27.52
2019-04-26T10:00:02.147Z,23.00
2019-04-26T10:02:33.985Z,24.12
2019-04-26T10:05:11.594Z,23.35
2019-04-26T10:07:40.214Z,29.45
2019-04-26T10:10:22.395Z,21.33
2019-04-26T10:12:46.319Z,22.98
2019-04-26T10:17:50.206Z,22.02
2019-04-26T10:20:21.796Z,23.22
2019-04-26T10:22:52.627Z,24.67
2019-04-26T10:25:23.679Z,24.23
2019-04-26T10:27:54.489Z,24.63
2019-04-26T10:30:25.659Z,24.23
2019-04-26T10:32:58.396Z,23.90
2019-04-26T10:35:29.255Z,25.48
2019-04-26T10:38:00.158Z,25.23
2019-04-26T10:40:35.712Z,26.05
2019-04-26T10:43:03.411Z,24.65
2019-04-26T10:45:34.829Z,24.65
2019-04-26T10:48:09.585Z,22.62
2019-04-26T10:50:39.215Z,25.85
2019-04-26T10:53:11.236Z,24.60
2019-04-26T10:55:41.953Z,25.95
2019-04-26T10:58:15.827Z,22.62
2019-04-26T11:00:48.367Z,25.15
2019-04-26T11:03:20.565Z,22.37
2019-04-26T11:05:53.787Z,22.48
2019-04-26T11:08:23.657Z,31.03
2019-04-26T11:10:55.010Z,25.15
2019-04-26T11:13:25.942Z,25.75
2019-04-26T11:15:56.664Z,29.00
2019-04-26T11:18:28.632Z,25.60
2019-04-26T11:20:59.684Z,29.48
2019-04-26T11:23:30.627Z,28.87
2019-04-26T11:26:02.872Z,27.40
2019-04-26T11:28:33.558Z,32.40
2019-04-26T11:31:05.407Z,42.70
2019-04-26T11:33:44.706Z,33.55
2019-04-26T11:36:09.726Z,39.78
2019-04-26T11:38:40.777Z,31.25
2019-04-26T11:41:12.002Z,30.65
2019-04-26T11:43:42.779Z,30.97
2019-04-26T11:46:13.643Z,28.10
2019-04-26T11:48:44.567Z,26.57
2019-04-26T11:51:15.343Z,28.67
2019-04-26T11:53:46.488Z,33.90
2019-04-26T11:56:17.364Z,30.40
2019-04-26T11:58:48.245Z,33.45
2019-04-26T12:01:20.954Z,28.73
2019-04-26T12:03:55.615Z,28.65
2019-04-26T12:06:27.169Z,29.30
2019-04-26T12:08:59.575Z,29.45
2019-04-26T12:11:35.077Z,32.73
2019-04-26T12:14:04.220Z,47.38
2019-04-26T12:16:47.355Z,34.83
2019-04-26T12:19:09.914Z,38.38
2019-04-26T12:21:42.882Z,40.63
2019-04-26T12:24:13.528Z,39.23
2019-04-26T12:26:46.293Z,32.28
2019-04-26T12:29:16.820Z,36.25
2019-04-26T12:31:48.319Z,30.10
2019-04-26T12:34:19.588Z,29.75
2019-04-26T12:36:50.643Z,27.20
2019-04-26T12:39:21.876Z,31.23
2019-04-26T12:41:52.933Z,30.57
2019-04-26T12:44:25.862Z,31.27
2019-04-26T12:46:59.393Z,26.75
2019-04-26T12:49:30.511Z,28.62
2019-04-26T12:52:01.647Z,33.83
2019-04-26T12:54:32.631Z,30.72
2019-04-26T12:57:05.861Z,26.05
2019-04-26T12:59:44.112Z,30.97
2019-04-26T13:02:08.958Z,34.50
2019-04-26T13:04:40.587Z,28.73
2019-04-26T13:07:23.472Z,34.88
2019-04-26T13:09:48.275Z,32.05
2019-04-26T13:12:20.528Z,30.30
2019-04-26T13:14:53.014Z,28.30
2019-04-26T13:17:25.186Z,27.98
2019-04-26T13:19:56.267Z,31.15
2019-04-26T13:22:28.139Z,30.05
2019-04-26T13:24:59.206Z,29.72
2019-04-26T13:27:30.214Z,25.88
2019-04-26T13:30:02.440Z,29.55
2019-04-26T13:32:33.560Z,30.70
2019-04-26T13:35:07.257Z,35.65
2019-04-26T13:37:37.105Z,33.30
2019-04-26T13:40:09.206Z,29.80
2019-04-26T13:42:42.234Z,32.65
2019-04-26T13:45:15.530Z,29.32
2019-04-26T13:50:22.385Z,27.17
2019-04-26T13:52:51.279Z,27.42
2019-04-26T13:55:25.433Z,30.15
2019-04-26T13:57:55.989Z,32.53
2019-04-26T14:00:28.845Z,34.00
2019-04-26T14:03:00.145Z,33.13
2019-04-26T14:05:31.322Z,25.97
2019-04-26T14:08:02.548Z,26.35
2019-04-26T14:10:33.478Z,18.95
2019-04-26T14:13:05.226Z,17.17
2019-04-26T14:15:39.519Z,17.65
2019-04-26T14:18:08.366Z,16.50
2019-04-26T14:20:39.320Z,15.72
2019-04-26T14:23:15.292Z,16.25
2019-04-26T14:25:45.639Z,20.12
2019-04-26T14:28:20.266Z,18.35
2019-04-26T14:30:50.108Z,20.32
2019-04-26T14:33:21.464Z,27.05
2019-04-26T14:35:52.520Z,22.30
2019-04-26T14:38:27.932Z,21.85
2019-04-26T14:41:03.855Z,21.77
2019-04-26T14:43:40.058Z,21.13
2019-04-26T14:46:00.673Z,18.27
2019-04-26T14:48:36.294Z,19.45
2019-04-26T14:51:08.282Z,21.52
2019-04-26T14:53:36.621Z,18.25
2019-04-26T14:56:08.775Z,16.82
2019-04-26T14:58:39.785Z,15.98
2019-04-26T15:01:12.666Z,17.45
2019-04-26T15:03:43.246Z,19.05
2019-04-26T15:06:16.806Z,32.30
2019-04-26T15:08:48.690Z,26.40
2019-04-26T15:11:19.479Z,31.13
2019-04-26T15:13:50.819Z,33.98
2019-04-26T15:16:22.685Z,21.57
2019-04-26T15:18:53.847Z,22.77
2019-04-26T15:21:27.370Z,17.90
2019-04-26T15:23:59.314Z,23.97
2019-04-26T15:26:30.258Z,15.55
2019-04-26T15:29:02.533Z,15.25
2019-04-26T15:31:33.681Z,16.23
2019-04-26T15:34:04.695Z,15.28
2019-04-26T15:36:35.650Z,18.95
2019-04-26T15:39:13.668Z,19.52
2019-04-26T15:41:47.021Z,15.60
2019-04-26T15:44:20.371Z,16.05
2019-04-26T15:46:53.597Z,14.60
2019-04-26T15:49:26.192Z,16.90
2019-04-26T15:51:59.788Z,18.17
2019-04-26T15:54:30.403Z,19.37
2019-04-26T15:57:02.177Z,14.95
2019-04-26T15:59:33.646Z,15.90
2019-04-26T16:02:04.817Z,17.40
2019-04-26T16:04:35.596Z,16.45
2019-04-26T16:07:06.893Z,15.90
2019-04-26T16:09:37.820Z,17.65
2019-04-26T16:12:08.738Z,16.00
2019-04-26T16:14:39.967Z,15.75
2019-04-26T16:17:12.346Z,15.55
2019-04-26T16:19:42.887Z,15.95
2019-04-26T16:22:14.006Z,16.30
2019-04-26T16:24:45.006Z,16.57
2019-04-26T16:27:15.747Z,16.80
2019-04-26T16:29:50.892Z,15.88
2019-04-26T16:32:22.029Z,26.25
2019-04-26T16:37:24.208Z,19.95
2019-04-26T16:39:55.053Z,18.15
2019-04-26T16:42:26.340Z,21.00
2019-04-26T16:45:04.179Z,18.67
2019-04-26T16:47:29.406Z,15.95
2019-04-26T16:50:02.014Z,18.70
2019-04-26T16:52:33.732Z,15.18
2019-04-26T16:55:15.380Z,15.30
2019-04-26T16:57:43.873Z,15.18
2019-04-26T17:00:15.787Z,14.18
2019-04-26T17:05:21.018Z,13.62
2019-04-26T17:07:47.275Z,16.15
2019-04-26T17:10:20.809Z,15.63
2019-04-26T17:12:51.729Z,17.10
2019-04-26T17:15:24.199Z,12.37
2019-04-26T17:17:55.354Z,14.57
2019-04-26T17:20:26.624Z,13.13
2019-04-26T17:23:00.807Z,14.53
2019-04-26T17:25:32.422Z,11.73
2019-04-26T17:28:03.536Z,13.13
2019-04-26T17:30:40.786Z,12.07
2019-04-26T17:33:07.330Z,17.50
2019-04-26T17:35:41.027Z,13.03
2019-04-26T17:38:11.447Z,15.75
2019-04-26T17:40:42.834Z,14.73
2019-04-26T17:43:13.792Z,14.25
2019-04-26T17:45:44.614Z,13.00
2019-04-26T17:48:15.917Z,14.23
2019-04-26T17:50:47.124Z,12.98
2019-04-26T17:53:28.606Z,18.35
2019-04-26T17:55:54.456Z,13.13
2019-04-26T17:58:30.957Z,14.40
2019-04-26T18:00:56.465Z,15.25
2019-04-26T18:03:28.066Z,15.30
2019-04-26T18:06:00.904Z,15.08
2019-04-26T18:08:37.056Z,12.98
2019-04-26T18:11:03.615Z,13.80
2019-04-26T18:13:34.313Z,15.18
2019-04-26T18:16:05.473Z,14.18
2019-04-26T18:18:37.639Z,14.25
2019-04-26T18:21:16.500Z,16.37
2019-04-26T18:26:13.413Z,13.58
2019-04-26T18:28:51.558Z,15.85
2019-04-26T18:31:22.120Z,15.48
2019-04-26T18:33:50.489Z,14.58
2019-04-26T18:36:21.493Z,20.43
2019-04-26T18:38:53.667Z,15.50
2019-04-26T18:41:28.792Z,14.20
2019-04-26T18:43:59.847Z,15.72
2019-04-26T18:46:31.854Z,15.68
2019-04-26T18:49:04.355Z,14.95
2019-04-26T18:51:35.286Z,18.15
2019-04-26T18:54:09.230Z,23.25
2019-04-26T18:56:41.111Z,14.58
2019-04-26T18:59:15.367Z,14.83
2019-04-26T19:01:45.558Z,14.00
2019-04-26T19:04:16.851Z,13.38
2019-04-26T19:06:47.793Z,12.75
2019-04-26T19:09:21.216Z,11.05
2019-04-26T19:14:24.971Z,13.25
2019-04-26T19:16:59.188Z,14.13
2019-04-26T19:19:31.485Z,12.70
2019-04-26T19:22:03.954Z,15.80
2019-04-26T19:24:34.832Z,13.05
2019-04-26T19:27:06.145Z,12.20
2019-04-26T19:29:37.494Z,11.80
2019-04-26T19:32:08.546Z,11.90
2019-04-26T19:34:41.970Z,11.57
2019-04-26T19:37:12.140Z,11.10
2019-04-26T19:39:43.123Z,12.73
2019-04-26T19:42:14.176Z,10.85
2019-04-26T19:44:45.265Z,10.70
2019-04-26T19:47:16.008Z,13.25
2019-04-26T19:49:48.209Z,11.33
2019-04-26T19:52:22.040Z,13.50
2019-04-26T19:54:54.144Z,10.23
2019-04-26T19:57:26.804Z,12.13
2019-04-26T19:59:57.638Z,12.18
2019-04-26T20:02:35.795Z,12.95
2019-04-26T20:05:02.405Z,12.05
2019-04-26T20:07:33.356Z,11.57
2019-04-26T20:10:05.294Z,10.30
2019-04-26T20:12:38.183Z,11.35
2019-04-26T20:15:15.373Z,12.33
2019-04-26T20:20:20.878Z,11.10
2019-04-26T20:22:44.861Z,12.03
2019-04-26T20:25:15.845Z,11.20
2019-04-26T20:27:46.715Z,11.08
2019-04-26T20:30:24.429Z,10.43
2019-04-26T20:32:52.387Z,11.88
2019-04-26T20:35:26.951Z,12.78
2019-04-26T20:38:02.804Z,12.25
2019-04-26T20:40:29.712Z,12.88
2019-04-26T20:43:05.365Z,14.58
2019-04-26T20:45:41.705Z,13.90
2019-04-26T20:48:05.982Z,11.35
2019-04-26T20:50:37.264Z,13.85
2019-04-26T20:53:08.271Z,14.25
2019-04-26T20:55:39.578Z,15.90
2019-04-26T20:58:11.777Z,12.55
2019-04-26T21:00:53.763Z,15.50
2019-04-26T21:03:23.702Z,19.48
2019-04-26T21:05:52.811Z,13.53
2019-04-26T21:08:25.705Z,15.53
2019-04-26T21:10:56.154Z,16.15
2019-04-26T21:13:30.883Z,16.25
2019-04-26T21:15:58.771Z,15.08
2019-04-26T21:18:35.189Z,18.73
2019-04-26T21:21:06.043Z,20.03
2019-04-26T21:23:39.836Z,16.40
2019-04-26T21:26:14.735Z,15.95
2019-04-26T21:28:43.860Z,15.55
2019-04-26T21:31:16.477Z,18.82
2019-04-26T21:33:48.587Z,16.27
2019-04-26T21:36:20.903Z,15.30
2019-04-26T21:38:53.128Z,14.50
2019-04-26T21:41:25.895Z,19.70
2019-04-26T21:43:56.923Z,19.33
2019-04-26T21:46:28.934Z,16.95
2019-04-26T21:49:00.194Z,16.40
2019-04-26T21:51:31.278Z,15.35
2019-04-26T21:54:03.826Z,17.00
2019-04-26T21:56:34.593Z,16.07
2019-04-26T21:59:05.627Z,17.17
2019-04-26T22:01:36.778Z,15.72
2019-04-26T22:04:07.803Z,19.62
2019-04-26T22:06:38.755Z,15.63
2019-04-26T22:09:13.656Z,21.97
2019-04-26T22:11:44.590Z,17.48
2019-04-26T22:14:19.859Z,17.55
2019-04-26T22:16:50.934Z,24.43
2019-04-26T22:19:23.877Z,18.17
2019-04-26T22:21:59.365Z,23.47
2019-04-26T22:24:29.481Z,22.50
2019-04-26T22:27:00.772Z,22.93
2019-04-26T22:29:33.153Z,20.62
2019-04-26T22:32:03.823Z,19.05
2019-04-26T22:34:37.295Z,24.43
2019-04-26T22:37:11.088Z,22.35
2019-04-26T22:39:41.112Z,23.98
2019-04-26T22:42:13.777Z,24.80
2019-04-26T22:44:45.778Z,29.77
2019-04-26T22:47:18.354Z,22.22
2019-04-26T22:49:49.262Z,25.50
2019-04-26T22:52:20.081Z,26.23
2019-04-26T22:54:51.200Z,29.32
2019-04-26T22:57:23.239Z,27.13
2019-04-26T23:00:15.026Z,22.20
2019-04-26T23:02:45.885Z,25.82
2019-04-26T23:05:16.722Z,23.95
2019-04-26T23:07:47.810Z,21.45
2019-04-26T23:10:18.753Z,25.05
2019-04-26T23:12:50.788Z,27.27
2019-04-26T23:15:23.935Z,28.00
2019-04-26T23:17:56.709Z,34.60
2019-04-26T23:20:34.285Z,24.05
2019-04-26T23:23:05.171Z,30.80
2019-04-26T23:25:34.910Z,25.75
2019-04-26T23:28:05.925Z,25.05
2019-04-26T23:30:36.772Z,26.62
2019-04-26T23:33:07.816Z,26.70
2019-04-26T23:35:43.441Z,27.35
2019-04-26T23:38:11.279Z,21.65
2019-04-26T23:40:42.980Z,26.75
2019-04-26T23:43:13.880Z,29.77
2019-04-26T23:45:48.239Z,31.23
2019-04-26T23:48:17.459Z,24.18
2019-04-26T23:50:49.661Z,27.35
2019-04-26T23:53:21.369Z,23.87
2019-04-26T23:55:52.302Z,25.15
2019-04-26T23:58:23.123Z,27.55
